createdAt,value
2023-08-21T00:01:59.716Z,26.00
2023-08-21T00:06:01.046Z,26.10
2023-08-21T00:10:02.492Z,26.00
2023-08-21T00:14:04.036Z,26.00
2023-08-21T00:18:06.161Z,26.10
2023-08-21T00:22:07.411Z,26.10
2023-08-21T00:26:08.742Z,26.30
2023-08-21T00:30:11.598Z,26.30
2023-08-21T00:34:12.930Z,26.20
2023-08-21T00:38:14.254Z,26.30
2023-08-21T00:42:15.562Z,26.20
2023-08-21T00:46:17.690Z,26.10
2023-08-21T00:50:19.582Z,26.00
2023-08-21T00:54:21.297Z,26.00
2023-08-21T00:58:22.611Z,25.90
2023-08-21T01:02:24.144Z,25.90
2023-08-21T01:06:25.449Z,25.90
2023-08-21T01:10:45.881Z,25.70
2023-08-21T01:15:03.599Z,25.80
2023-08-21T01:19:08.661Z,25.70
2023-08-21T01:23:09.975Z,25.80
2023-08-21T01:27:15.021Z,25.70
2023-08-21T01:31:20.161Z,25.60
2023-08-21T01:35:22.949Z,25.50
2023-08-21T01:39:25.886Z,25.50
2023-08-21T01:43:27.393Z,25.30
2023-08-21T01:47:28.697Z,25.20
2023-08-21T01:51:30.161Z,25.20
2023-08-21T01:55:31.624Z,25.20
2023-08-21T01:59:32.928Z,25.20
2023-08-21T02:03:34.272Z,25.30
2023-08-21T02:07:35.694Z,25.30
2023-08-21T02:11:37.119Z,25.20
2023-08-21T02:15:39.238Z,25.10
2023-08-21T02:19:40.507Z,25.10
2023-08-21T02:23:41.821Z,25.20
2023-08-21T02:27:43.144Z,25.00
2023-08-21T02:31:44.541Z,25.10
2023-08-21T02:35:45.857Z,25.20
2023-08-21T02:39:47.338Z,25.10
2023-08-21T02:43:48.661Z,25.10
2023-08-21T02:47:49.988Z,25.10
2023-08-21T02:51:51.434Z,25.10
2023-08-21T02:55:52.757Z,25.00
2023-08-21T02:59:55.073Z,24.90
2023-08-21T03:03:56.415Z,24.80
2023-08-21T03:07:57.728Z,24.90
2023-08-21T03:11:59.035Z,24.70
2023-08-21T03:16:00.349Z,24.70
2023-08-21T03:20:05.428Z,24.50
2023-08-21T03:24:06.751Z,24.60
2023-08-21T03:28:08.070Z,24.50
2023-08-21T03:32:09.366Z,24.50
2023-08-21T03:36:10.858Z,24.50
2023-08-21T03:40:12.489Z,24.40
2023-08-21T03:44:13.757Z,24.40
2023-08-21T03:48:14.995Z,24.40
2023-08-21T03:52:16.309Z,24.60
2023-08-21T03:56:18.916Z,24.40
2023-08-21T04:00:20.262Z,24.30
2023-08-21T04:04:21.597Z,24.40
2023-08-21T04:08:23.536Z,24.20
2023-08-21T04:12:25.072Z,24.10
2023-08-21T04:16:27.713Z,24.10
2023-08-21T04:20:29.014Z,24.10
2023-08-21T04:24:30.381Z,24.10
2023-08-21T04:28:33.816Z,24.20
2023-08-21T04:32:35.366Z,24.30
2023-08-21T04:36:36.632Z,24.20
2023-08-21T04:40:37.952Z,24.20
2023-08-21T04:44:39.249Z,24.20
2023-08-21T04:48:40.480Z,24.30
2023-08-21T04:52:42.541Z,24.30
2023-08-21T04:56:43.852Z,24.40
2023-08-21T05:00:46.322Z,24.40
2023-08-21T05:04:47.675Z,24.50
2023-08-21T05:08:48.922Z,24.70
2023-08-21T05:12:50.227Z,24.60
2023-08-21T05:16:51.548Z,24.70
2023-08-21T05:20:54.575Z,24.90
2023-08-21T05:24:55.901Z,24.90
2023-08-21T05:28:57.207Z,24.90
2023-08-21T05:32:58.892Z,25.00
2023-08-21T05:37:00.158Z,24.90
2023-08-21T05:41:01.558Z,24.90
2023-08-21T05:45:03.251Z,24.90
2023-08-21T05:49:04.617Z,25.00
2023-08-21T05:53:06.644Z,24.80
2023-08-21T05:57:07.941Z,25.00
2023-08-21T06:01:09.407Z,25.10
2023-08-21T06:05:10.876Z,25.20
2023-08-21T06:09:12.211Z,25.20
2023-08-21T06:13:13.564Z,25.10
2023-08-21T06:17:14.942Z,25.20
2023-08-21T06:21:16.270Z,25.30
2023-08-21T06:25:19.554Z,25.00
2023-08-21T06:29:21.147Z,25.00
2023-08-21T06:33:22.437Z,25.20
2023-08-21T06:37:23.781Z,25.40
2023-08-21T06:41:25.834Z,25.40
2023-08-21T06:45:29.031Z,25.30
2023-08-21T06:49:30.349Z,25.40
2023-08-21T06:53:31.957Z,25.50
2023-08-21T06:57:33.382Z,25.40
2023-08-21T07:01:34.667Z,25.60
2023-08-21T07:05:35.933Z,25.90
2023-08-21T07:09:37.254Z,26.30
2023-08-21T07:13:39.355Z,26.60
2023-08-21T07:17:40.694Z,26.80
2023-08-21T07:21:42.120Z,26.90
2023-08-21T07:25:43.415Z,26.90
2023-08-21T07:29:45.142Z,26.20
2023-08-21T07:33:46.455Z,26.50
2023-08-21T07:37:47.874Z,26.60
2023-08-21T07:41:49.172Z,26.70
2023-08-21T07:45:50.561Z,26.60
2023-08-21T07:49:51.839Z,26.70
2023-08-21T07:53:53.172Z,27.00
2023-08-21T07:57:54.470Z,27.10
2023-08-21T08:01:56.217Z,27.40
2023-08-21T08:05:58.888Z,27.80
2023-08-21T08:10:00.219Z,27.90
2023-08-21T08:14:01.573Z,27.90
2023-08-21T08:18:03.845Z,28.30
2023-08-21T08:22:05.147Z,28.20
2023-08-21T08:26:08.775Z,27.60
2023-08-21T08:30:10.625Z,27.90
2023-08-21T08:34:12.072Z,28.50
2023-08-21T08:38:13.419Z,29.00
2023-08-21T08:42:16.325Z,29.50
2023-08-21T08:46:18.424Z,29.50
2023-08-21T08:50:20.618Z,29.90
2023-08-21T08:54:22.963Z,30.90
2023-08-21T08:58:24.244Z,31.10
2023-08-21T09:02:26.900Z,31.60
2023-08-21T09:06:28.505Z,31.70
2023-08-21T09:10:29.927Z,32.00
2023-08-21T09:14:31.433Z,32.00
2023-08-21T09:18:34.759Z,32.20
2023-08-21T09:22:36.449Z,32.50
2023-08-21T09:26:38.126Z,33.20
2023-08-21T09:30:54.243Z,33.10
2023-08-21T09:34:55.564Z,33.00
2023-08-21T09:38:56.892Z,33.50
2023-08-21T09:42:59.519Z,33.60
2023-08-21T09:47:00.931Z,34.10
2023-08-21T09:51:04.740Z,34.50
2023-08-21T09:55:07.335Z,34.10
2023-08-21T09:59:09.446Z,34.10
2023-08-21T10:03:11.908Z,34.90
2023-08-21T10:07:13.607Z,35.10
2023-08-21T10:11:18.441Z,34.90
2023-08-21T10:15:19.728Z,34.80
2023-08-21T10:19:21.365Z,34.90
2023-08-21T10:23:29.921Z,35.00
2023-08-21T10:27:33.793Z,35.60
2023-08-21T10:31:40.702Z,35.60
2023-08-21T10:35:43.311Z,35.80
2023-08-21T10:39:57.185Z,35.40
2023-08-21T10:43:58.762Z,36.20
2023-08-21T10:48:00.561Z,36.30
2023-08-21T10:52:02.979Z,35.90
2023-08-21T10:56:05.629Z,36.10
2023-08-21T11:00:11.995Z,36.60
2023-08-21T11:04:13.404Z,36.90
2023-08-21T11:08:14.707Z,37.40
2023-08-21T11:12:18.530Z,37.60
2023-08-21T11:16:19.895Z,37.30
2023-08-21T11:20:21.202Z,37.20
2023-08-21T11:24:22.514Z,37.20
2023-08-21T11:28:23.802Z,37.30
2023-08-21T11:32:25.221Z,37.00
2023-08-21T11:36:26.748Z,36.70
2023-08-21T11:40:28.168Z,36.70
2023-08-21T11:44:29.802Z,36.90
2023-08-21T11:48:31.395Z,36.70
2023-08-21T11:52:33.409Z,37.00
2023-08-21T11:56:36.558Z,37.20
2023-08-21T12:00:40.250Z,37.00
2023-08-21T12:04:44.417Z,37.00
2023-08-21T12:08:46.091Z,36.80
2023-08-21T12:12:47.421Z,35.80
2023-08-21T12:16:48.740Z,35.30
2023-08-21T12:20:50.093Z,36.10
2023-08-21T12:24:51.377Z,36.00
2023-08-21T12:28:52.604Z,36.60
2023-08-21T12:32:53.938Z,36.80
2023-08-21T12:36:55.746Z,36.30
2023-08-21T12:40:57.094Z,36.80
2023-08-21T12:44:58.442Z,37.00
2023-08-21T12:49:01.552Z,37.20
2023-08-21T12:53:03.024Z,36.90
2023-08-21T12:57:04.940Z,37.20
2023-08-21T13:01:06.990Z,36.90
2023-08-21T13:05:08.482Z,37.20
2023-08-21T13:09:09.800Z,37.20
2023-08-21T13:13:11.238Z,36.40
2023-08-21T13:17:12.592Z,36.70
2023-08-21T13:21:13.895Z,36.50
2023-08-21T13:25:18.396Z,37.00
2023-08-21T13:29:20.275Z,36.80
2023-08-21T13:33:21.609Z,36.70
2023-08-21T13:37:24.113Z,37.10
2023-08-21T13:41:25.504Z,36.40
2023-08-21T13:45:27.830Z,35.80
2023-08-21T13:49:33.210Z,35.50
2023-08-21T13:53:35.131Z,35.70
2023-08-21T13:57:39.636Z,36.30
2023-08-21T14:01:41.408Z,36.60
2023-08-21T14:05:42.785Z,36.80
2023-08-21T14:09:44.362Z,36.60
2023-08-21T14:13:46.247Z,36.40
2023-08-21T14:17:49.532Z,36.20
2023-08-21T14:21:51.073Z,36.30
2023-08-21T14:25:52.459Z,36.40
2023-08-21T14:29:53.905Z,36.40
2023-08-21T14:33:55.230Z,36.60
2023-08-21T14:37:59.167Z,36.50
2023-08-21T14:42:01.746Z,36.60
2023-08-21T14:46:04.784Z,36.10
2023-08-21T14:50:06.716Z,35.90
2023-08-21T14:54:08.193Z,36.00
2023-08-21T14:58:10.390Z,35.60
2023-08-21T15:02:11.826Z,35.10
2023-08-21T15:06:13.733Z,35.10
2023-08-21T15:10:15.174Z,35.60
2023-08-21T15:14:17.226Z,35.50
2023-08-21T15:18:18.574Z,35.50
2023-08-21T15:22:21.405Z,35.60
2023-08-21T15:26:22.817Z,35.50
2023-08-21T15:30:24.343Z,35.20
2023-08-21T15:34:25.706Z,35.00
2023-08-21T15:38:27.145Z,35.00
2023-08-21T15:42:28.480Z,35.00
2023-08-21T15:46:29.938Z,34.90
2023-08-21T15:50:31.406Z,34.80
2023-08-21T15:54:33.970Z,34.90
2023-08-21T15:58:35.702Z,34.90
2023-08-21T16:02:37.614Z,35.00
2023-08-21T16:06:42.347Z,35.10
2023-08-21T16:10:43.675Z,35.00
2023-08-21T16:14:45.357Z,34.80
2023-08-21T16:18:46.793Z,34.60
2023-08-21T16:22:49.118Z,34.80
2023-08-21T16:26:50.465Z,34.80
2023-08-21T16:30:51.787Z,34.70
2023-08-21T16:34:53.755Z,34.60
2023-08-21T16:38:55.279Z,34.50
2023-08-21T16:42:56.628Z,34.50
2023-08-21T16:46:57.958Z,34.30
2023-08-21T16:50:59.514Z,34.20
2023-08-21T16:55:00.835Z,34.10
2023-08-21T16:59:02.193Z,34.20
2023-08-21T17:03:04.327Z,34.20
2023-08-21T17:07:05.641Z,34.10
2023-08-21T17:11:07.011Z,34.00
2023-08-21T17:15:08.696Z,33.70
2023-08-21T17:19:10.013Z,33.70
2023-08-21T17:23:11.369Z,33.70
2023-08-21T17:27:12.907Z,33.70
2023-08-21T17:31:15.321Z,33.60
2023-08-21T17:35:16.612Z,33.40
2023-08-21T17:39:18.362Z,33.10
2023-08-21T17:43:19.673Z,33.10
2023-08-21T17:47:21.218Z,32.90
2023-08-21T17:51:22.629Z,32.80
2023-08-21T17:55:23.958Z,32.70
2023-08-21T17:59:25.257Z,31.70
2023-08-21T18:03:26.777Z,31.30
2023-08-21T18:07:28.108Z,31.20
2023-08-21T18:11:29.753Z,31.30
2023-08-21T18:15:35.941Z,31.20
2023-08-21T18:19:46.495Z,30.80
2023-08-21T18:23:40.879Z,30.80
2023-08-21T18:27:42.378Z,30.80
2023-08-21T18:31:43.844Z,30.80
2023-08-21T18:35:45.176Z,30.80
2023-08-21T18:39:46.521Z,30.70
2023-08-21T18:43:47.841Z,30.60
2023-08-21T18:47:49.177Z,30.60
2023-08-21T18:51:50.470Z,30.70
2023-08-21T18:55:51.806Z,30.50
2023-08-21T18:59:53.127Z,30.50
2023-08-21T19:03:54.520Z,30.50
2023-08-21T19:07:56.090Z,30.50
2023-08-21T19:11:57.548Z,30.50
2023-08-21T19:16:00.251Z,30.50
2023-08-21T19:20:04.168Z,30.50
2023-08-21T19:24:05.951Z,30.50
2023-08-21T19:28:07.340Z,30.40
2023-08-21T19:32:08.773Z,30.20
2023-08-21T19:36:14.276Z,30.10
2023-08-21T19:40:16.067Z,30.10
2023-08-21T19:44:17.779Z,30.10
2023-08-21T19:48:19.340Z,30.10
2023-08-21T19:52:20.970Z,30.00
2023-08-21T19:56:22.627Z,29.90
2023-08-21T20:00:24.209Z,29.90
2023-08-21T20:04:25.658Z,29.80
2023-08-21T20:08:27.084Z,29.80
2023-08-21T20:12:28.545Z,29.80
2023-08-21T20:16:30.157Z,29.70
2023-08-21T20:20:31.682Z,29.70
2023-08-21T20:24:33.232Z,29.50
2023-08-21T20:28:34.731Z,29.60
2023-08-21T20:32:36.378Z,29.50
2023-08-21T20:36:38.068Z,29.50
2023-08-21T20:40:40.027Z,29.40
2023-08-21T20:44:41.821Z,29.50
2023-08-21T20:48:43.394Z,29.50
2023-08-21T20:52:45.050Z,29.50
2023-08-21T20:56:46.573Z,29.50
2023-08-21T21:00:48.094Z,29.40
2023-08-21T21:04:55.635Z,29.40
2023-08-21T21:08:57.162Z,29.30
2023-08-21T21:12:58.564Z,29.40
2023-08-21T21:17:00.192Z,29.20
2023-08-21T21:21:01.670Z,28.90
2023-08-21T21:25:04.326Z,28.50
2023-08-21T21:29:07.893Z,28.20
2023-08-21T21:33:09.493Z,28.00
2023-08-21T21:37:10.942Z,27.80
2023-08-21T21:41:12.475Z,27.70
2023-08-21T21:45:14.268Z,27.60
2023-08-21T21:49:15.745Z,26.80
2023-08-21T21:53:17.157Z,26.80
2023-08-21T21:57:18.766Z,26.80
2023-08-21T22:01:20.421Z,26.80
2023-08-21T22:05:21.854Z,26.80
2023-08-21T22:09:23.264Z,27.00
2023-08-21T22:13:24.757Z,26.90
2023-08-21T22:17:26.208Z,26.90
2023-08-21T22:21:27.563Z,26.90
2023-08-21T22:25:29.375Z,26.80
2023-08-21T22:29:31.481Z,26.90
2023-08-21T22:33:32.816Z,26.70
2023-08-21T22:37:34.197Z,26.80
2023-08-21T22:41:35.547Z,26.80
2023-08-21T22:45:39.948Z,26.50
2023-08-21T22:49:41.626Z,26.50
2023-08-21T22:53:42.957Z,26.30
2023-08-21T22:57:46.290Z,26.10
2023-08-21T23:01:47.810Z,25.40
2023-08-21T23:05:56.570Z,25.40
2023-08-21T23:09:57.898Z,25.30
2023-08-21T23:13:59.203Z,25.50
2023-08-21T23:18:00.879Z,25.30
2023-08-21T23:22:02.133Z,25.30
2023-08-21T23:26:03.680Z,25.30
2023-08-21T23:30:05.709Z,25.30
2023-08-21T23:34:08.221Z,25.30
2023-08-21T23:38:09.526Z,25.20
2023-08-21T23:42:10.837Z,25.20
2023-08-21T23:46:12.147Z,25.20
2023-08-21T23:50:13.785Z,25.20
2023-08-21T23:54:15.367Z,25.10
2023-08-21T23:58:16.690Z,25.10
